sensor_id;sensor_type;location;lat;lon;timestamp;pressure;altitude;pressure_sealevel;temperature;humidity
9460;BME280;4768;42.664;23.240;2023-04-25T00:02:17;-9668.59;;;9.06;100.00
9460;BME280;4768;42.664;23.240;2023-04-25T00:04:46;-9670.31;;;9.12;100.00
9460;BME280;4768;42.664;23.240;2023-04-25T00:07:14;-9669.03;;;9.08;100.00
9460;BME280;4768;42.664;23.240;2023-04-25T00:09:41;-9669.03;;;9.08;100.00
9460;BME280;4768;42.664;23.240;2023-04-25T00:12:08;-9669.72;;;9.10;100.00
9460;BME280;4768;42.664;23.240;2023-04-25T00:14:35;-9668.19;;;9.05;100.00
9460;BME280;4768;42.664;23.240;2023-04-25T00:17:01;-9665.34;;;8.95;100.00
9460;BME280;4768;42.664;23.240;2023-04-25T00:19:29;-9666.63;;;8.99;100.00
9460;BME280;4768;42.664;23.240;2023-04-25T00:21:59;-9668.19;;;9.05;100.00
9460;BME280;4768;42.664;23.240;2023-04-25T00:24:26;-9670.72;;;9.14;100.00
9460;BME280;4768;42.664;23.240;2023-04-25T00:26:52;-9670.72;;;9.14;100.00
9460;BME280;4768;42.664;23.240;2023-04-25T00:29:19;-9670.31;;;9.12;100.00
9460;BME280;4768;42.664;23.240;2023-04-25T00:31:46;-9670.16;;;9.12;100.00
9460;BME280;4768;42.664;23.240;2023-04-25T00:34:13;-9669.72;;;9.10;100.00
9460;BME280;4768;42.664;23.240;2023-04-25T00:36:39;-9669.47;;;9.09;100.00
9460;BME280;4768;42.664;23.240;2023-04-25T00:39:07;-9673.13;;;9.22;100.00
9460;BME280;4768;42.664;23.240;2023-04-25T00:41:34;-9672.44;;;9.19;100.00
9460;BME280;4768;42.664;23.240;2023-04-25T00:44:03;-9674.97;;;9.28;100.00
9460;BME280;4768;42.664;23.240;2023-04-25T00:46:31;-9673.44;;;9.23;100.00
9460;BME280;4768;42.664;23.240;2023-04-25T00:48:57;-9669.88;;;9.11;100.00
9460;BME280;4768;42.664;23.240;2023-04-25T00:51:25;-9674.41;;;9.26;100.00
9460;BME280;4768;42.664;23.240;2023-04-25T00:53:52;-9672.16;;;9.18;100.00
9460;BME280;4768;42.664;23.240;2023-04-25T00:56:21;-9668.75;;;9.07;100.00
9460;BME280;4768;42.664;23.240;2023-04-25T00:58:48;-9668.88;;;9.07;100.00
9460;BME280;4768;42.664;23.240;2023-04-25T01:01:16;-9670.59;;;9.13;100.00
9460;BME280;4768;42.664;23.240;2023-04-25T01:03:43;-9668.03;;;9.04;100.00
9460;BME280;4768;42.664;23.240;2023-04-25T01:06:11;-9667.59;;;9.03;100.00
9460;BME280;4768;42.664;23.240;2023-04-25T01:08:39;-9668.19;;;9.05;100.00
9460;BME280;4768;42.664;23.240;2023-04-25T01:11:06;-9665.78;;;8.96;100.00
9460;BME280;4768;42.664;23.240;2023-04-25T01:13:34;-9667.03;;;9.01;100.00
9460;BME280;4768;42.664;23.240;2023-04-25T01:16:02;-9665.91;;;8.97;100.00
9460;BME280;4768;42.664;23.240;2023-04-25T01:18:29;-9665.19;;;8.94;100.00
9460;BME280;4768;42.664;23.240;2023-04-25T01:21:03;-9664.50;;;8.92;100.00
9460;BME280;4768;42.664;23.240;2023-04-25T01:23:33;-9663.34;;;8.88;100.00
9460;BME280;4768;42.664;23.240;2023-04-25T01:26:00;-9662.09;;;8.83;100.00
9460;BME280;4768;42.664;23.240;2023-04-25T01:28:28;-9659.53;;;8.74;100.00
9460;BME280;4768;42.664;23.240;2023-04-25T01:30:55;-9656.97;;;8.66;100.00
9460;BME280;4768;42.664;23.240;2023-04-25T01:33:22;-9655.00;;;8.59;100.00
9460;BME280;4768;42.664;23.240;2023-04-25T01:35:49;-9654.84;;;8.58;100.00
9460;BME280;4768;42.664;23.240;2023-04-25T01:38:17;-9658.53;;;8.71;100.00
9460;BME280;4768;42.664;23.240;2023-04-25T01:40:45;-9657.69;;;8.68;100.00
9460;BME280;4768;42.664;23.240;2023-04-25T01:43:12;-9655.41;;;8.60;100.00
9460;BME280;4768;42.664;23.240;2023-04-25T01:45:40;-9654.00;;;8.55;100.00
9460;BME280;4768;42.664;23.240;2023-04-25T01:48:06;-9651.88;;;8.48;100.00
9460;BME280;4768;42.664;23.240;2023-04-25T01:50:33;-9651.31;;;8.46;100.00
9460;BME280;4768;42.664;23.240;2023-04-25T01:53:00;-9650.75;;;8.44;100.00
9460;BME280;4768;42.664;23.240;2023-04-25T01:55:29;-9649.88;;;8.41;100.00
9460;BME280;4768;42.664;23.240;2023-04-25T01:57:56;-9649.75;;;8.40;100.00
9460;BME280;4768;42.664;23.240;2023-04-25T02:00:22;-9650.59;;;8.43;100.00
9460;BME280;4768;42.664;23.240;2023-04-25T02:02:49;-9650.31;;;8.42;100.00
9460;BME280;4768;42.664;23.240;2023-04-25T02:05:18;-9649.31;;;8.39;100.00
9460;BME280;4768;42.664;23.240;2023-04-25T02:07:46;-9651.44;;;8.46;100.00
9460;BME280;4768;42.664;23.240;2023-04-25T02:10:16;-9650.19;;;8.42;100.00
9460;BME280;4768;42.664;23.240;2023-04-25T02:12:44;-9650.75;;;8.44;100.00
9460;BME280;4768;42.664;23.240;2023-04-25T02:15:11;-9649.75;;;8.40;100.00
9460;BME280;4768;42.664;23.240;2023-04-25T02:17:38;-9647.06;;;8.31;100.00
9460;BME280;4768;42.664;23.240;2023-04-25T02:20:06;-9647.34;;;8.32;100.00
9460;BME280;4768;42.664;23.240;2023-04-25T02:22:33;-9646.63;;;8.29;100.00
9460;BME280;4768;42.664;23.240;2023-04-25T02:25:01;-9645.94;;;8.27;100.00
9460;BME280;4768;42.664;23.240;2023-04-25T02:27:29;-9644.78;;;8.23;100.00
9460;BME280;4768;42.664;23.240;2023-04-25T02:29:57;-9644.78;;;8.23;100.00
9460;BME280;4768;42.664;23.240;2023-04-25T02:32:26;-9645.50;;;8.25;100.00
9460;BME280;4768;42.664;23.240;2023-04-25T02:34:53;-9645.78;;;8.26;100.00
9460;BME280;4768;42.664;23.240;2023-04-25T02:37:20;-9648.06;;;8.34;100.00
9460;BME280;4768;42.664;23.240;2023-04-25T02:39:46;-9647.34;;;8.32;100.00
9460;BME280;4768;42.664;23.240;2023-04-25T02:42:13;-9646.34;;;8.28;100.00
9460;BME280;4768;42.664;23.240;2023-04-25T02:44:40;-9644.50;;;8.22;100.00
9460;BME280;4768;42.664;23.240;2023-04-25T02:47:08;-9642.81;;;8.16;100.00
9460;BME280;4768;42.664;23.240;2023-04-25T02:49:35;-9644.22;;;8.21;100.00
9460;BME280;4768;42.664;23.240;2023-04-25T02:52:01;-9643.66;;;8.19;100.00
9460;BME280;4768;42.664;23.240;2023-04-25T02:54:28;-9643.81;;;8.19;100.00
9460;BME280;4768;42.664;23.240;2023-04-25T02:56:55;-9644.78;;;8.23;100.00
9460;BME280;4768;42.664;23.240;2023-04-25T02:59:23;-9646.91;;;8.30;100.00
9460;BME280;4768;42.664;23.240;2023-04-25T03:01:50;-9655.00;;;8.59;100.00
9460;BME280;4768;42.664;23.240;2023-04-25T03:04:18;-9663.78;;;8.89;100.00
9460;BME280;4768;42.664;23.240;2023-04-25T03:06:46;-9668.59;;;9.06;100.00
9460;BME280;4768;42.664;23.240;2023-04-25T03:09:13;-9670.88;;;9.14;100.00
9460;BME280;4768;42.664;23.240;2023-04-25T03:11:39;-9675.84;;;9.31;100.00
9460;BME280;4768;42.664;23.240;2023-04-25T03:14:06;-9679.09;;;9.43;100.00
9460;BME280;4768;42.664;23.240;2023-04-25T03:16:33;-9684.91;;;9.63;100.00
9460;BME280;4768;42.664;23.240;2023-04-25T03:19:00;-9686.19;;;9.67;100.00
9460;BME280;4768;42.664;23.240;2023-04-25T03:21:28;-9688.31;;;9.75;100.00
9460;BME280;4768;42.664;23.240;2023-04-25T03:23:56;-9692.28;;;9.89;100.00
9460;BME280;4768;42.664;23.240;2023-04-25T03:26:23;-9692.72;;;9.90;100.00
9460;BME280;4768;42.664;23.240;2023-04-25T03:28:49;-9692.56;;;9.90;100.00
9460;BME280;4768;42.664;23.240;2023-04-25T03:31:16;-9692.16;;;9.88;100.00
9460;BME280;4768;42.664;23.240;2023-04-25T03:33:43;-9694.13;;;9.95;100.00
9460;BME280;4768;42.664;23.240;2023-04-25T03:36:10;-9694.56;;;9.97;100.00
9460;BME280;4768;42.664;23.240;2023-04-25T03:38:38;-9692.44;;;9.89;100.00
9460;BME280;4768;42.664;23.240;2023-04-25T03:41:06;-9692.00;;;9.88;100.00
9460;BME280;4768;42.664;23.240;2023-04-25T03:43:33;-9691.88;;;9.87;100.00
9460;BME280;4768;42.664;23.240;2023-04-25T03:46:00;-9700.53;;;10.17;100.00
9460;BME280;4768;42.664;23.240;2023-04-25T03:48:27;-9702.78;;;10.25;100.00
9460;BME280;4768;42.664;23.240;2023-04-25T03:50:54;-9708.47;;;10.45;100.00
9460;BME280;4768;42.664;23.240;2023-04-25T03:53:21;-9712.88;;;10.60;100.00
9460;BME280;4768;42.664;23.240;2023-04-25T03:55:49;-9714.84;;;10.67;100.00
9460;BME280;4768;42.664;23.240;2023-04-25T03:58:16;-9715.41;;;10.69;100.00
9460;BME280;4768;42.664;23.240;2023-04-25T04:00:42;-9719.81;;;10.85;100.00
9460;BME280;4768;42.664;23.240;2023-04-25T04:03:09;-9720.53;;;10.87;100.00
9460;BME280;4768;42.664;23.240;2023-04-25T04:05:36;-9709.47;;;10.49;100.00
9460;BME280;4768;42.664;23.240;2023-04-25T04:08:05;-9692.00;;;9.88;100.00
9460;BME280;4768;42.664;23.240;2023-04-25T04:10:32;-9685.91;;;9.66;100.00
9460;BME280;4768;42.664;23.240;2023-04-25T04:13:00;-9681.09;;;9.50;100.00
9460;BME280;4768;42.664;23.240;2023-04-25T04:15:27;-9686.63;;;9.69;100.00
9460;BME280;4768;42.664;23.240;2023-04-25T04:17:54;-9685.91;;;9.66;100.00
9460;BME280;4768;42.664;23.240;2023-04-25T04:20:21;-9683.78;;;9.59;100.00
9460;BME280;4768;42.664;23.240;2023-04-25T04:22:47;-9681.38;;;9.51;100.00
9460;BME280;4768;42.664;23.240;2023-04-25T04:25:14;-9680.50;;;9.48;100.00
9460;BME280;4768;42.664;23.240;2023-04-25T04:27:41;-9687.47;;;9.72;100.00
9460;BME280;4768;42.664;23.240;2023-04-25T04:30:12;-9687.75;;;9.73;100.00
9460;BME280;4768;42.664;23.240;2023-04-25T04:32:38;-9676.81;;;9.35;100.00
9460;BME280;4768;42.664;23.240;2023-04-25T04:35:06;-9679.53;;;9.44;100.00
9460;BME280;4768;42.664;23.240;2023-04-25T04:37:34;-9677.25;;;9.36;100.00
9460;BME280;4768;42.664;23.240;2023-04-25T04:40:02;-9680.09;;;9.46;100.00
9460;BME280;4768;42.664;23.240;2023-04-25T04:42:31;-9683.50;;;9.58;100.00
9460;BME280;4768;42.664;23.240;2023-04-25T04:44:57;-9688.31;;;9.75;100.00
9460;BME280;4768;42.664;23.240;2023-04-25T04:47:28;-9703.34;;;10.27;100.00
9460;BME280;4768;42.664;23.240;2023-04-25T04:49:56;-9715.00;;;10.68;100.00
9460;BME280;4768;42.664;23.240;2023-04-25T04:52:23;-9715.56;;;10.70;100.00
9460;BME280;4768;42.664;23.240;2023-04-25T04:54:50;-9715.84;;;10.71;100.00
9460;BME280;4768;42.664;23.240;2023-04-25T04:57:16;-9716.97;;;10.75;100.00
9460;BME280;4768;42.664;23.240;2023-04-25T04:59:43;-9716.41;;;10.73;100.00
9460;BME280;4768;42.664;23.240;2023-04-25T05:02:11;-9716.00;;;10.71;100.00
9460;BME280;4768;42.664;23.240;2023-04-25T05:04:39;-9716.84;;;10.74;100.00
9460;BME280;4768;42.664;23.240;2023-04-25T05:07:05;-9714.84;;;10.67;100.00
9460;BME280;4768;42.664;23.240;2023-04-25T05:09:32;-9712.00;;;10.58;100.00
9460;BME280;4768;42.664;23.240;2023-04-25T05:11:59;-9708.59;;;10.46;100.00
9460;BME280;4768;42.664;23.240;2023-04-25T05:14:26;-9691.72;;;9.87;100.00
9460;BME280;4768;42.664;23.240;2023-04-25T05:16:53;-9684.47;;;9.62;100.00
9460;BME280;4768;42.664;23.240;2023-04-25T05:19:20;-9682.94;;;9.56;100.00
9460;BME280;4768;42.664;23.240;2023-04-25T05:21:48;-9679.53;;;9.44;100.00
9460;BME280;4768;42.664;23.240;2023-04-25T05:24:14;-9680.50;;;9.48;100.00
9460;BME280;4768;42.664;23.240;2023-04-25T05:26:41;-9680.50;;;9.48;100.00
9460;BME280;4768;42.664;23.240;2023-04-25T05:29:08;-9682.06;;;9.53;100.00
9460;BME280;4768;42.664;23.240;2023-04-25T05:31:35;-9685.19;;;9.64;100.00
9460;BME280;4768;42.664;23.240;2023-04-25T05:34:02;-9679.09;;;9.43;100.00
9460;BME280;4768;42.664;23.240;2023-04-25T05:36:29;-9681.50;;;9.51;100.00
9460;BME280;4768;42.664;23.240;2023-04-25T05:38:57;-9685.19;;;9.64;100.00
9460;BME280;4768;42.664;23.240;2023-04-25T05:41:24;-9681.94;;;9.53;100.00
9460;BME280;4768;42.664;23.240;2023-04-25T05:43:51;-9681.09;;;9.50;100.00
9460;BME280;4768;42.664;23.240;2023-04-25T05:46:17;-9684.63;;;9.62;100.00
9460;BME280;4768;42.664;23.240;2023-04-25T05:48:45;-9682.06;;;9.53;100.00
9460;BME280;4768;42.664;23.240;2023-04-25T05:51:14;-9681.78;;;9.52;100.00
9460;BME280;4768;42.664;23.240;2023-04-25T05:53:41;-9679.66;;;9.45;100.00
9460;BME280;4768;42.664;23.240;2023-04-25T05:56:09;-9685.06;;;9.63;100.00
9460;BME280;4768;42.664;23.240;2023-04-25T05:58:36;-9688.03;;;9.74;100.00
9460;BME280;4768;42.664;23.240;2023-04-25T06:01:03;-9690.16;;;9.81;100.00
9460;BME280;4768;42.664;23.240;2023-04-25T06:03:30;-9689.72;;;9.80;100.00
9460;BME280;4768;42.664;23.240;2023-04-25T06:05:56;-9688.88;;;9.77;100.00
9460;BME280;4768;42.664;23.240;2023-04-25T06:08:23;-9690.72;;;9.83;100.00
9460;BME280;4768;42.664;23.240;2023-04-25T06:10:50;-9681.66;;;9.52;100.00
9460;BME280;4768;42.664;23.240;2023-04-25T06:13:18;-9683.63;;;9.59;100.00
9460;BME280;4768;42.664;23.240;2023-04-25T06:15:45;-9680.78;;;9.49;100.00
9460;BME280;4768;42.664;23.240;2023-04-25T06:18:11;-9682.66;;;9.55;100.00
9460;BME280;4768;42.664;23.240;2023-04-25T06:20:38;-9693.28;;;9.92;100.00
9460;BME280;4768;42.664;23.240;2023-04-25T06:23:05;-9693.13;;;9.92;100.00
9460;BME280;4768;42.664;23.240;2023-04-25T06:25:32;-9700.81;;;10.18;100.00
9460;BME280;4768;42.664;23.240;2023-04-25T06:27:58;-9703.50;;;10.28;100.00
9460;BME280;4768;42.664;23.240;2023-04-25T06:30:26;-9710.75;;;10.53;100.00
9460;BME280;4768;42.664;23.240;2023-04-25T06:32:53;-9708.03;;;10.44;100.00
9460;BME280;4768;42.664;23.240;2023-04-25T06:35:20;-9715.72;;;10.70;100.00
9460;BME280;4768;42.664;23.240;2023-04-25T06:37:47;-9720.38;;;10.87;100.00
9460;BME280;4768;42.664;23.240;2023-04-25T06:40:14;-9707.91;;;10.43;100.00
9460;BME280;4768;42.664;23.240;2023-04-25T06:42:42;-9701.22;;;10.20;100.00
9460;BME280;4768;42.664;23.240;2023-04-25T06:45:10;-9709.88;;;10.50;100.00
9460;BME280;4768;42.664;23.240;2023-04-25T06:47:38;-9718.25;;;10.79;100.00
9460;BME280;4768;42.664;23.240;2023-04-25T06:50:08;-9714.84;;;10.67;100.00
9460;BME280;4768;42.664;23.240;2023-04-25T06:52:34;-9715.72;;;10.70;100.00
9460;BME280;4768;42.664;23.240;2023-04-25T06:55:01;-9717.41;;;10.76;100.00
9460;BME280;4768;42.664;23.240;2023-04-25T06:57:28;-9716.13;;;10.72;100.00
9460;BME280;4768;42.664;23.240;2023-04-25T06:59:55;-9712.88;;;10.60;100.00
9460;BME280;4768;42.664;23.240;2023-04-25T07:02:21;-9716.41;;;10.73;100.00
9460;BME280;4768;42.664;23.240;2023-04-25T07:04:49;-9709.59;;;10.49;100.00
9460;BME280;4768;42.664;23.240;2023-04-25T07:07:16;-9712.72;;;10.60;100.00
9460;BME280;4768;42.664;23.240;2023-04-25T07:09:43;-9705.91;;;10.36;100.00
9460;BME280;4768;42.664;23.240;2023-04-25T07:12:10;-9706.19;;;10.37;100.00
9460;BME280;4768;42.664;23.240;2023-04-25T07:14:37;-9715.84;;;10.71;100.00
9460;BME280;4768;42.664;23.240;2023-04-25T07:17:04;-9718.41;;;10.80;100.00
9460;BME280;4768;42.664;23.240;2023-04-25T07:19:32;-9715.84;;;10.71;100.00
9460;BME280;4768;42.664;23.240;2023-04-25T07:22:00;-9721.09;;;10.89;100.00
9460;BME280;4768;42.664;23.240;2023-04-25T07:24:27;-9721.94;;;10.92;100.00
9460;BME280;4768;42.664;23.240;2023-04-25T07:26:54;-9732.03;;;11.27;100.00
9460;BME280;4768;42.664;23.240;2023-04-25T07:29:20;-9730.63;;;11.22;100.00
9460;BME280;4768;42.664;23.240;2023-04-25T07:31:47;-9740.56;;;11.57;100.00
9460;BME280;4768;42.664;23.240;2023-04-25T07:34:14;-9747.53;;;11.81;100.00
9460;BME280;4768;42.664;23.240;2023-04-25T07:36:41;-9759.88;;;12.24;100.00
9460;BME280;4768;42.664;23.240;2023-04-25T07:39:09;-9770.97;;;12.63;100.00
9460;BME280;4768;42.664;23.240;2023-04-25T07:41:36;-9775.09;;;12.77;100.00
9460;BME280;4768;42.664;23.240;2023-04-25T07:44:03;-9773.81;;;12.73;100.00
9460;BME280;4768;42.664;23.240;2023-04-25T07:46:30;-9782.63;;;13.03;100.00
9460;BME280;4768;42.664;23.240;2023-04-25T07:48:57;-9786.88;;;13.18;100.00
9460;BME280;4768;42.664;23.240;2023-04-25T07:51:23;-9801.69;;;13.70;100.00
9460;BME280;4768;42.664;23.240;2023-04-25T07:53:51;-9785.19;;;13.12;100.00
9460;BME280;4768;42.664;23.240;2023-04-25T07:56:19;-9795.72;;;13.49;100.00
9460;BME280;4768;42.664;23.240;2023-04-25T07:58:45;-9807.94;;;13.92;100.00
9460;BME280;4768;42.664;23.240;2023-04-25T08:01:12;-9807.66;;;13.91;100.00
9460;BME280;4768;42.664;23.240;2023-04-25T08:03:39;-9799.53;;;13.62;100.00
9460;BME280;4768;42.664;23.240;2023-04-25T08:06:06;-9803.81;;;13.77;100.00
9460;BME280;4768;42.664;23.240;2023-04-25T08:08:32;-9812.63;;;14.08;100.00
9460;BME280;4768;42.664;23.240;2023-04-25T08:10:59;-9811.63;;;14.04;100.00
9460;BME280;4768;42.664;23.240;2023-04-25T08:13:27;-9825.31;;;14.52;100.00
9460;BME280;4768;42.664;23.240;2023-04-25T08:15:54;-9810.22;;;14.00;100.00
9460;BME280;4768;42.664;23.240;2023-04-25T08:18:21;-9815.78;;;14.19;100.00
9460;BME280;4768;42.664;23.240;2023-04-25T08:20:47;-9811.78;;;14.05;100.00
9460;BME280;4768;42.664;23.240;2023-04-25T08:23:14;-9810.78;;;14.01;100.00
9460;BME280;4768;42.664;23.240;2023-04-25T08:25:41;-9805.25;;;13.82;100.00
9460;BME280;4768;42.664;23.240;2023-04-25T08:28:07;-9799.53;;;13.62;100.00
9460;BME280;4768;42.664;23.240;2023-04-25T08:30:36;-9793.72;;;13.42;100.00
9460;BME280;4768;42.664;23.240;2023-04-25T08:33:03;-9790.44;;;13.31;100.00
9460;BME280;4768;42.664;23.240;2023-04-25T08:35:30;-9785.19;;;13.12;100.00
9460;BME280;4768;42.664;23.240;2023-04-25T08:37:58;-9794.84;;;13.46;100.00
9460;BME280;4768;42.664;23.240;2023-04-25T08:40:27;-9823.72;;;14.47;100.00
9460;BME280;4768;42.664;23.240;2023-04-25T08:42:57;-9845.22;;;15.21;100.00
9460;BME280;4768;42.664;23.240;2023-04-25T08:45:26;-9855.06;;;15.55;100.00
9460;BME280;4768;42.664;23.240;2023-04-25T08:47:57;-9834.84;;;14.85;100.00
9460;BME280;4768;42.664;23.240;2023-04-25T08:50:24;-9826.44;;;14.56;100.00
9460;BME280;4768;42.664;23.240;2023-04-25T08:52:53;-9838.53;;;14.98;100.00
9460;BME280;4768;42.664;23.240;2023-04-25T08:55:21;-9840.53;;;15.05;100.00
9460;BME280;4768;42.664;23.240;2023-04-25T08:57:48;-9840.66;;;15.05;100.00
9460;BME280;4768;42.664;23.240;2023-04-25T09:00:16;-9840.97;;;15.06;100.00
9460;BME280;4768;42.664;23.240;2023-04-25T09:02:43;-9838.97;;;14.99;100.00
9460;BME280;4768;42.664;23.240;2023-04-25T09:05:12;-9846.22;;;15.25;100.00
9460;BME280;4768;42.664;23.240;2023-04-25T09:07:39;-9867.59;;;15.99;100.00
9460;BME280;4768;42.664;23.240;2023-04-25T09:10:06;-9870.88;;;16.10;100.00
9460;BME280;4768;42.664;23.240;2023-04-25T09:12:34;-9855.63;;;15.57;100.00
9460;BME280;4768;42.664;23.240;2023-04-25T09:15:04;-9863.75;;;15.86;100.00
9460;BME280;4768;42.664;23.240;2023-04-25T09:17:31;-4347.16;;;15.78;100.00
9460;BME280;4768;42.664;23.240;2023-04-25T09:20:06;28559.72;;;15.36;100.00
9460;BME280;4768;42.664;23.240;2023-04-25T09:22:36;64574.59;;;15.09;100.00
9460;BME280;4768;42.664;23.240;2023-04-25T09:25:04;65982.28;;;15.10;100.00
9460;BME280;4768;42.664;23.240;2023-04-25T09:27:34;75151.81;;;15.21;100.00
9460;BME280;4768;42.664;23.240;2023-04-25T09:30:01;85425.53;;;15.43;100.00
9460;BME280;4768;42.664;23.240;2023-04-25T09:32:28;94371.75;;;16.04;100.00
9460;BME280;4768;42.664;23.240;2023-04-25T09:34:56;149608.31;;;16.47;100.00
9460;BME280;4768;42.664;23.240;2023-04-25T09:37:25;171275.94;;;16.25;100.00
9460;BME280;4768;42.664;23.240;2023-04-25T09:39:55;167130.69;;;17.04;100.00
9460;BME280;4768;42.664;23.240;2023-04-25T09:42:23;171560.94;;;17.31;100.00
9460;BME280;4768;42.664;23.240;2023-04-25T09:44:53;171630.56;;;17.56;100.00
9460;BME280;4768;42.664;23.240;2023-04-25T09:47:22;171305.34;;;16.36;100.00
9460;BME280;4768;42.664;23.240;2023-04-25T09:49:50;171451.19;;;16.90;100.00
9460;BME280;4768;42.664;23.240;2023-04-25T09:52:18;171431.09;;;16.83;100.00
9460;BME280;4768;42.664;23.240;2023-04-25T09:54:46;171314.69;;;16.40;100.00
9460;BME280;4768;42.664;23.240;2023-04-25T09:57:15;171320.06;;;16.42;100.00
9460;BME280;4768;42.664;23.240;2023-04-25T09:59:44;171237.06;;;16.11;100.00
9460;BME280;4768;42.664;23.240;2023-04-25T10:02:12;171186.25;;;15.92;100.00
9460;BME280;4768;42.664;23.240;2023-04-25T10:04:40;171103.34;;;15.61;100.00
9460;BME280;4768;42.664;23.240;2023-04-25T10:07:08;170857.38;;;14.70;100.00
9460;BME280;4768;42.664;23.240;2023-04-25T10:09:37;1895.69;;;12.70;100.00
9460;BME280;4768;42.664;23.240;2023-04-25T10:12:05;-9744.81;;;11.72;100.00
9460;BME280;4768;42.664;23.240;2023-04-25T10:14:34;-9745.25;;;11.73;100.00
9460;BME280;4768;42.664;23.240;2023-04-25T10:17:01;-9750.66;;;11.92;100.00
9460;BME280;4768;42.664;23.240;2023-04-25T10:19:28;-9763.56;;;12.37;100.00
9460;BME280;4768;42.664;23.240;2023-04-25T10:22:04;-9780.06;;;12.95;100.00
9460;BME280;4768;42.664;23.240;2023-04-25T10:24:32;-9795.56;;;13.49;100.00
9460;BME280;4768;42.664;23.240;2023-04-25T10:27:00;-9818.47;;;14.28;100.00
9460;BME280;4768;42.664;23.240;2023-04-25T10:29:27;-9829.44;;;14.66;100.00
9460;BME280;4768;42.664;23.240;2023-04-25T10:31:55;-9835.25;;;14.87;100.00
9460;BME280;4768;42.664;23.240;2023-04-25T10:34:38;-9832.56;;;14.77;100.00
9460;BME280;4768;42.664;23.240;2023-04-25T10:37:09;-9832.00;;;14.75;100.00
9460;BME280;4768;42.664;23.240;2023-04-25T10:39:36;-9840.97;;;15.06;100.00
9460;BME280;4768;42.664;23.240;2023-04-25T10:42:04;-9836.81;;;14.92;100.00
9460;BME280;4768;42.664;23.240;2023-04-25T10:44:31;-9838.09;;;14.97;100.00
9460;BME280;4768;42.664;23.240;2023-04-25T10:47:00;-9832.84;;;14.78;100.00
9460;BME280;4768;42.664;23.240;2023-04-25T10:49:30;-9826.41;;;14.63;100.00
9460;BME280;4768;42.664;23.240;2023-04-25T10:52:17;-6049.66;;;14.85;100.00
9460;BME280;4768;42.664;23.240;2023-04-25T10:54:48;-6742.50;;;15.04;100.00
9460;BME280;4768;42.664;23.240;2023-04-25T10:57:32;-7776.03;;;15.09;100.00
9460;BME280;4768;42.664;23.240;2023-04-25T11:00:04;-4330.22;;;14.93;100.00
9460;BME280;4768;42.664;23.240;2023-04-25T11:02:36;-6405.34;;;15.35;100.00
9460;BME280;4768;42.664;23.240;2023-04-25T11:05:04;16393.81;;;14.82;100.00
9460;BME280;4768;42.664;23.240;2023-04-25T11:07:35;3251.34;;;15.27;100.00
9460;BME280;4768;42.664;23.240;2023-04-25T11:10:04;9127.44;;;15.44;100.00
9460;BME280;4768;42.664;23.240;2023-04-25T11:12:32;11551.09;;;15.53;100.00
9460;BME280;4768;42.664;23.240;2023-04-25T11:15:00;18483.53;;;15.43;100.00
9460;BME280;4768;42.664;23.240;2023-04-25T11:17:28;26458.72;;;14.91;100.00
9460;BME280;4768;42.664;23.240;2023-04-25T11:19:59;20552.44;;;14.75;100.00
9460;BME280;4768;42.664;23.240;2023-04-25T11:22:26;17432.34;;;14.76;100.00
9460;BME280;4768;42.664;23.240;2023-04-25T11:24:53;1876.25;;;14.67;100.00
9460;BME280;4768;42.664;23.240;2023-04-25T11:27:20;9470.94;;;14.39;100.00
9460;BME280;4768;42.664;23.240;2023-04-25T11:29:47;-3281.81;;;14.09;100.00
9460;BME280;4768;42.664;23.240;2023-04-25T11:32:15;-6717.44;;;13.99;100.00
9460;BME280;4768;42.664;23.240;2023-04-25T11:34:43;-9800.69;;;13.66;100.00
9460;BME280;4768;42.664;23.240;2023-04-25T11:37:12;-9795.13;;;13.47;100.00
9460;BME280;4768;42.664;23.240;2023-04-25T11:39:43;-9789.72;;;13.28;100.00
9460;BME280;4768;42.664;23.240;2023-04-25T11:42:10;-9774.50;;;12.75;100.00
9460;BME280;4768;42.664;23.240;2023-04-25T11:44:37;-9769.81;;;12.59;100.00
9460;BME280;4768;42.664;23.240;2023-04-25T11:47:04;-9765.00;;;12.42;100.00
9460;BME280;4768;42.664;23.240;2023-04-25T11:49:31;-9760.31;;;12.26;100.00
9460;BME280;4768;42.664;23.240;2023-04-25T11:51:58;-9759.16;;;12.22;100.00
9460;BME280;4768;42.664;23.240;2023-04-25T11:54:26;-9763.28;;;12.36;100.00
9460;BME280;4768;42.664;23.240;2023-04-25T11:56:53;-9770.25;;;12.60;100.00
9460;BME280;4768;42.664;23.240;2023-04-25T11:59:23;-9777.66;;;12.86;100.00
9460;BME280;4768;42.664;23.240;2023-04-25T12:01:50;-9784.75;;;13.11;100.00
9460;BME280;4768;42.664;23.240;2023-04-25T12:04:18;-9796.84;;;13.53;100.00
9460;BME280;4768;42.664;23.240;2023-04-25T12:06:46;-9809.38;;;13.97;100.00
9460;BME280;4768;42.664;23.240;2023-04-25T12:09:15;-9813.50;;;14.11;100.00
9460;BME280;4768;42.664;23.240;2023-04-25T12:11:45;-9819.31;;;14.31;100.00
9460;BME280;4768;42.664;23.240;2023-04-25T12:14:20;-9824.16;;;14.48;100.00
9460;BME280;4768;42.664;23.240;2023-04-25T12:16:49;-9823.44;;;14.46;100.00
9460;BME280;4768;42.664;23.240;2023-04-25T12:19:17;-9826.59;;;14.56;100.00
9460;BME280;4768;42.664;23.240;2023-04-25T12:21:44;-9828.72;;;14.64;100.00
9460;BME280;4768;42.664;23.240;2023-04-25T12:24:13;-9833.84;;;14.82;100.00
9460;BME280;4768;42.664;23.240;2023-04-25T12:26:50;-9818.63;;;14.29;100.00
9460;BME280;4768;42.664;23.240;2023-04-25T12:29:21;-9807.50;;;13.90;100.00
9460;BME280;4768;42.664;23.240;2023-04-25T12:31:49;-9769.97;;;12.59;100.00
9460;BME280;4768;42.664;23.240;2023-04-25T12:34:16;-9767.97;;;12.53;100.00
9460;BME280;4768;42.664;23.240;2023-04-25T12:36:43;-9759.75;;;12.24;100.00
9460;BME280;4768;42.664;23.240;2023-04-25T12:39:14;-9747.81;;;11.82;100.00
9460;BME280;4768;42.664;23.240;2023-04-25T12:41:41;-9747.38;;;11.81;100.00
9460;BME280;4768;42.664;23.240;2023-04-25T12:44:09;-9747.38;;;11.81;100.00
9460;BME280;4768;42.664;23.240;2023-04-25T12:46:37;-9739.84;;;11.55;100.00
9460;BME280;4768;42.664;23.240;2023-04-25T12:49:06;-9741.41;;;11.60;100.00
9460;BME280;4768;42.664;23.240;2023-04-25T12:51:34;-9741.56;;;11.60;100.00
9460;BME280;4768;42.664;23.240;2023-04-25T12:54:00;-9738.28;;;11.49;100.00
9460;BME280;4768;42.664;23.240;2023-04-25T12:56:28;-9742.84;;;11.65;100.00
9460;BME280;4768;42.664;23.240;2023-04-25T12:58:54;-9731.75;;;11.26;100.00
9460;BME280;4768;42.664;23.240;2023-04-25T13:01:23;-9725.06;;;11.03;100.00
9460;BME280;4768;42.664;23.240;2023-04-25T13:03:51;-9716.13;;;10.72;100.00
9460;BME280;4768;42.664;23.240;2023-04-25T13:06:18;-9694.28;;;9.96;100.00
9460;BME280;4768;42.664;23.240;2023-04-25T13:08:46;-9683.91;;;9.60;100.00